Hagatna, Guam
Current Conditions -  °F | °C
As of 6:54 PM on Saturday 29 Nov 2014 (Local Time) from PGUM Reporting Station
Few Clouds Few Clouds  
Wind Chill: 83°   Ceiling: Unl
Heat Index: 89°   Visibility: 10mi
Dew Point: 74°   Wind: 8mph
Humidity: 74%   Direction: 60°ENE
Pressure: 29.85"   Gusts: NA
Location:  13.48°N, 144.8°E
Report Text: PGUM 290854Z 06007KT 10SM FEW024 28/23 A2985 RMK AO2 SLP098 T02830233 51013
Loading
Personal Weather Stations






























Interactive Weather Map New forecast layout! Learn more

10-Day Weather Forecast

Advertisements
Track Severe Weather on mobile